EPAR weather

Arłamów Airport
Bircza, Subcarpathia, Poland

Public forecast

Using degrees Celsius for public forecast. Weather courtesy of forecast.io.

Closest aviation weather report (METAR) to Arłamów Airport

Closest report is Rzeszów-Jasionka Airport, 33.2 nm (61.6 km) NW. Retrieved 2020/02/26 16:00 UTC (21 minutes ago):

EPRZ 261600Z 28008KT 9999 SCT040 08/01 Q0994

Closest aviation forecast (TAF) to Arłamów Airport

Closest forecast is Rzeszów-Jasionka Airport, 33.2 nm (61.6 km) NW. Retrieved 2020/02/26 12:33 UTC (4 hours ago):

TAF EPRZ 261130Z 2612/2712 28010KT 9999 BKN020 TEMPO 2612/2622 4000 SHRA BKN012 BKN017CB TEMPO 2706/2712 28016G26KT 2000 SHRASN BKN006 BKN014CB PROB30 TEMPO 2706/2709 1200 SHSN